createdAt,value
2024-05-09T00:02:42.011Z,3.20
2024-05-09T00:07:45.570Z,3.00
2024-05-09T00:12:48.891Z,3.00
2024-05-09T00:17:52.851Z,3.50
2024-05-09T00:22:56.171Z,3.20
2024-05-09T00:27:59.601Z,3.40
2024-05-09T00:33:03.108Z,3.00
2024-05-09T00:38:06.964Z,2.30
2024-05-09T00:43:12.088Z,2.70
2024-05-09T00:48:19.778Z,2.90
2024-05-09T00:53:25.413Z,4.10
2024-05-09T00:58:30.759Z,3.70
2024-05-09T01:03:34.546Z,4.80
2024-05-09T01:08:38.708Z,4.20
2024-05-09T01:13:41.885Z,4.10
2024-05-09T01:18:45.336Z,3.50
2024-05-09T01:23:49.413Z,3.40
2024-05-09T01:28:52.652Z,4.10
2024-05-09T01:33:55.962Z,4.00
2024-05-09T01:38:59.247Z,3.80
2024-05-09T01:44:02.435Z,4.10
2024-05-09T01:49:05.847Z,3.50
2024-05-09T01:54:09.207Z,4.10
2024-05-09T01:59:12.354Z,3.40
2024-05-09T02:04:15.799Z,3.20
2024-05-09T02:09:19.626Z,3.50
2024-05-09T02:14:22.769Z,3.40
2024-05-09T02:19:26.338Z,3.00
2024-05-09T02:24:29.632Z,3.70
2024-05-09T02:29:33.222Z,2.80
2024-05-09T02:34:36.506Z,3.50
2024-05-09T02:39:39.672Z,3.30
2024-05-09T02:44:42.888Z,3.60
2024-05-09T02:49:46.192Z,3.80
2024-05-09T02:54:49.386Z,3.50
2024-05-09T02:59:52.614Z,4.40
2024-05-09T03:04:55.834Z,4.20
2024-05-09T03:09:59.188Z,4.00
2024-05-09T03:15:02.337Z,4.90
2024-05-09T03:20:11.664Z,4.70
2024-05-09T03:25:20.481Z,4.30
2024-05-09T03:30:38.902Z,4.60
2024-05-09T03:35:46.520Z,4.20
2024-05-09T03:40:50.953Z,3.20
2024-05-09T03:45:54.729Z,3.30
2024-05-09T03:50:57.920Z,2.90
2024-05-09T03:56:01.285Z,2.70
2024-05-09T04:01:05.587Z,3.30
2024-05-09T04:06:08.843Z,3.20
2024-05-09T04:11:12.153Z,3.60
2024-05-09T04:16:15.582Z,3.60
2024-05-09T04:21:18.743Z,3.60
2024-05-09T04:26:21.967Z,3.70
2024-05-09T04:31:25.489Z,3.60
2024-05-09T04:36:28.824Z,4.20
2024-05-09T04:41:32.224Z,3.20
2024-05-09T04:46:35.453Z,2.90
2024-05-09T04:51:38.758Z,3.30
2024-05-09T04:56:42.055Z,3.30
2024-05-09T05:01:45.420Z,3.00
2024-05-09T05:06:49.088Z,3.40
2024-05-09T05:11:52.494Z,3.00
2024-05-09T05:16:55.810Z,2.80
2024-05-09T05:22:03.808Z,3.60
2024-05-09T05:27:10.600Z,3.40
2024-05-09T05:32:16.844Z,3.30
2024-05-09T05:37:20.723Z,2.80
2024-05-09T05:42:24.306Z,2.30
2024-05-09T05:47:29.995Z,2.30
2024-05-09T05:52:35.273Z,2.70
2024-05-09T05:57:38.793Z,2.20
2024-05-09T06:02:42.959Z,2.40
2024-05-09T06:07:48.522Z,2.30
2024-05-09T06:12:58.489Z,2.30
2024-05-09T06:18:08.390Z,2.40
2024-05-09T06:23:14.950Z,2.00
2024-05-09T06:28:29.828Z,2.40
2024-05-09T06:33:34.330Z,2.20
2024-05-09T06:38:38.678Z,1.90
2024-05-09T06:43:43.530Z,2.80
2024-05-09T06:49:00.542Z,2.50
2024-05-09T06:54:47.560Z,1.90
2024-05-09T07:00:02.294Z,2.20
2024-05-09T07:05:14.423Z,2.30
2024-05-09T07:10:32.975Z,2.00
2024-05-09T07:15:41.503Z,2.30
2024-05-09T07:26:44.652Z,2.50
2024-05-09T07:31:48.091Z,2.80
2024-05-09T07:36:52.544Z,3.50
2024-05-09T07:42:03.972Z,2.80
2024-05-09T07:48:14.594Z,2.20
2024-05-09T07:53:32.635Z,2.40
2024-05-09T07:57:54.717Z,2.30
2024-05-09T08:02:58.107Z,2.80
2024-05-09T08:08:01.590Z,1.70
2024-05-09T08:13:05.323Z,2.30
2024-05-09T08:18:10.163Z,1.70
2024-05-09T08:23:14.050Z,1.80
2024-05-09T08:28:17.999Z,1.60
2024-05-09T08:33:21.509Z,1.90
2024-05-09T08:38:25.053Z,1.90
2024-05-09T08:43:30.329Z,2.00
2024-05-09T08:48:38.977Z,1.50
2024-05-09T08:53:42.917Z,1.90
2024-05-09T08:58:49.374Z,2.00
2024-05-09T09:03:54.337Z,2.50
2024-05-09T09:08:58.868Z,2.10
2024-05-09T09:14:02.077Z,2.40
2024-05-09T09:19:05.841Z,2.60
2024-05-09T09:24:10.084Z,1.90
2024-05-09T09:29:20.212Z,2.00
2024-05-09T09:34:31.654Z,1.60
2024-05-09T09:39:37.157Z,1.70
2024-05-09T09:44:44.971Z,1.90
2024-05-09T09:49:53.294Z,1.70
2024-05-09T09:54:57.753Z,1.50
2024-05-09T10:00:05.713Z,1.80
2024-05-09T10:05:11.489Z,2.20
2024-05-09T10:10:32.002Z,1.80
2024-05-09T10:15:48.666Z,1.60
2024-05-09T10:20:54.757Z,1.60
2024-05-09T10:25:59.326Z,1.50
2024-05-09T10:31:24.182Z,1.40
2024-05-09T10:36:29.571Z,1.50
2024-05-09T10:41:33.867Z,1.40
2024-05-09T10:46:37.856Z,1.20
2024-05-09T10:51:44.808Z,1.60
2024-05-09T10:56:57.857Z,1.40
2024-05-09T11:02:05.057Z,1.30
2024-05-09T11:07:20.510Z,1.50
2024-05-09T11:12:24.908Z,1.30
2024-05-09T11:17:37.273Z,1.20
2024-05-09T11:22:41.077Z,1.00
2024-05-09T11:27:44.961Z,1.20
2024-05-09T11:32:49.428Z,1.30
2024-05-09T11:37:52.651Z,1.50
2024-05-09T11:42:58.916Z,1.10
2024-05-09T11:48:04.072Z,1.70
2024-05-09T11:53:07.658Z,1.20
2024-05-09T11:58:12.822Z,1.10
2024-05-09T12:03:16.565Z,1.20
2024-05-09T12:08:24.373Z,1.20
2024-05-09T12:13:27.847Z,1.10
2024-05-09T12:18:34.123Z,1.60
2024-05-09T12:23:37.950Z,1.30
2024-05-09T12:28:43.019Z,1.20
2024-05-09T12:33:46.601Z,1.10
2024-05-09T12:38:50.310Z,1.40
2024-05-09T12:43:53.643Z,1.10
2024-05-09T12:48:57.092Z,1.20
2024-05-09T12:54:00.347Z,1.00
2024-05-09T12:59:06.243Z,1.10
2024-05-09T13:04:10.092Z,1.30
2024-05-09T13:09:14.717Z,1.20
2024-05-09T13:14:17.886Z,0.90
2024-05-09T13:19:21.217Z,1.40
2024-05-09T13:24:24.563Z,1.30
2024-05-09T13:29:28.129Z,1.40
2024-05-09T13:34:31.388Z,1.30
2024-05-09T13:39:35.263Z,1.10
2024-05-09T13:44:38.437Z,1.30
2024-05-09T13:49:42.187Z,1.00
2024-05-09T13:54:45.540Z,1.10
2024-05-09T13:59:48.891Z,1.20
2024-05-09T14:04:52.548Z,1.30
2024-05-09T14:09:56.012Z,1.10
2024-05-09T14:14:59.384Z,1.00
2024-05-09T14:20:03.108Z,1.20
2024-05-09T14:25:10.193Z,1.10
2024-05-09T14:30:22.125Z,1.00
2024-05-09T14:35:29.474Z,1.00
2024-05-09T14:40:40.578Z,1.20
2024-05-09T14:45:46.957Z,1.40
2024-05-09T14:50:50.720Z,1.20
2024-05-09T14:55:54.429Z,1.50
2024-05-09T15:00:57.959Z,1.10
2024-05-09T15:06:01.793Z,1.40
2024-05-09T15:11:05.428Z,1.10
2024-05-09T15:16:08.668Z,1.50
2024-05-09T15:21:12.933Z,1.60
2024-05-09T15:26:16.180Z,1.10
2024-05-09T15:31:19.462Z,1.20
2024-05-09T15:36:22.941Z,1.30
2024-05-09T15:41:26.367Z,1.40
2024-05-09T15:46:29.922Z,1.00
2024-05-09T15:51:35.005Z,1.10
2024-05-09T15:56:47.119Z,1.10
2024-05-09T16:01:51.023Z,1.40
2024-05-09T16:06:54.947Z,1.40
2024-05-09T16:11:58.883Z,1.20
2024-05-09T16:17:02.649Z,1.50
2024-05-09T16:22:05.979Z,1.40
2024-05-09T16:27:09.458Z,1.50
2024-05-09T16:32:13.216Z,1.20
2024-05-09T16:37:20.077Z,1.50
2024-05-09T16:42:23.399Z,1.40
2024-05-09T16:47:27.733Z,1.70
2024-05-09T16:52:31.143Z,1.70
2024-05-09T16:57:34.971Z,1.60
2024-05-09T17:02:39.386Z,1.50
2024-05-09T17:07:43.746Z,1.20
2024-05-09T17:12:47.075Z,1.70
2024-05-09T17:17:50.423Z,1.40
2024-05-09T17:22:54.027Z,1.50
2024-05-09T17:27:59.684Z,1.30
2024-05-09T17:33:04.315Z,1.50
2024-05-09T17:38:08.908Z,1.50
2024-05-09T17:43:13.025Z,1.70
2024-05-09T17:48:17.684Z,1.70
2024-05-09T17:53:21.663Z,1.60
2024-05-09T17:58:25.048Z,1.40
2024-05-09T18:03:28.814Z,1.40
2024-05-09T18:08:32.861Z,1.40
2024-05-09T18:13:36.083Z,1.60
2024-05-09T18:18:39.734Z,1.60
2024-05-09T18:23:43.551Z,1.50
2024-05-09T18:28:47.483Z,2.70
2024-05-09T18:33:50.973Z,3.40
2024-05-09T18:38:54.755Z,4.40
2024-05-09T18:43:58.054Z,4.80
2024-05-09T18:49:01.511Z,4.30
2024-05-09T18:54:04.764Z,4.10
2024-05-09T18:59:08.007Z,4.50
2024-05-09T19:04:11.994Z,5.00
2024-05-09T19:09:15.895Z,4.80
2024-05-09T19:14:19.031Z,4.80
2024-05-09T19:19:25.446Z,5.90
2024-05-09T19:24:29.119Z,5.60
2024-05-09T19:29:32.298Z,7.50
2024-05-09T19:34:35.425Z,9.10
2024-05-09T19:39:38.901Z,7.40
2024-05-09T19:44:42.169Z,6.60
2024-05-09T19:49:45.406Z,6.40
2024-05-09T19:54:50.141Z,7.50
2024-05-09T19:59:53.451Z,5.90
2024-05-09T20:04:57.188Z,6.40
2024-05-09T20:10:00.568Z,5.90
2024-05-09T20:15:04.190Z,6.10
2024-05-09T20:20:13.813Z,6.10
2024-05-09T20:25:24.001Z,5.30
2024-05-09T20:30:32.114Z,3.80
2024-05-09T20:35:37.204Z,3.90
2024-05-09T20:40:40.719Z,4.10
2024-05-09T20:45:44.124Z,3.80
2024-05-09T20:50:47.568Z,4.10
2024-05-09T20:55:50.907Z,4.70
2024-05-09T21:00:54.231Z,4.10
2024-05-09T21:05:58.853Z,4.50
2024-05-09T21:11:02.473Z,4.40
2024-05-09T21:16:06.244Z,4.20
2024-05-09T21:21:09.414Z,4.40
2024-05-09T21:26:14.572Z,4.50
2024-05-09T21:31:17.995Z,4.50
2024-05-09T21:36:21.205Z,4.30
2024-05-09T21:41:25.343Z,5.50
2024-05-09T21:46:28.682Z,4.60
2024-05-09T21:51:32.163Z,4.70
2024-05-09T21:56:35.438Z,5.20
2024-05-09T22:01:40.468Z,5.00
2024-05-09T22:06:43.827Z,5.40
2024-05-09T22:11:48.155Z,5.40
2024-05-09T22:16:52.799Z,6.20
2024-05-09T22:21:56.892Z,4.60
2024-05-09T22:27:00.403Z,5.90
2024-05-09T22:32:04.964Z,5.10
2024-05-09T22:37:08.232Z,5.70
2024-05-09T22:42:11.701Z,6.60
2024-05-09T22:47:14.874Z,5.10
2024-05-09T22:52:18.347Z,5.50
2024-05-09T22:57:21.544Z,5.10
2024-05-09T23:02:24.976Z,4.80
2024-05-09T23:07:28.161Z,4.70
2024-05-09T23:12:31.312Z,4.50
2024-05-09T23:17:34.672Z,4.50
2024-05-09T23:22:38.017Z,4.90
2024-05-09T23:27:42.101Z,5.20
2024-05-09T23:32:45.339Z,4.60
2024-05-09T23:37:48.994Z,4.30
2024-05-09T23:42:52.137Z,4.40
2024-05-09T23:47:55.627Z,3.90
2024-05-09T23:52:58.942Z,3.60
2024-05-09T23:58:02.659Z,4.10
